Strona główna
METAR-TAF:

METAR-TAF

Lotnisko :

Port lotniczy Bergamo-Orio al Serio

Bergamo, Włochy

Szerokość geograficzna: 45-40N, Długość geograficzna: 009-42E, wysokość: 238 m

Aktualna obserwacja pogody

Raport powstał 22 minut temu, godzina 10:50 UTC
Wiatr 1 kt z kierunków zmiennych
Temperatura 10°C
Wilgotność 87%
Ciśnienie 1024 hPa
Widzialność: 2500 m
Rozproszone chmury na wysokości 600 ft
zamglenie

METAR: LIME 181050Z VRB01KT 2500 BR SCT006 10/08 Q1024 BECMG 5000

czas: 12:12 (11:12 UTC)

Prognoza

Raport powstał 3 godziny i 28 minut temu, godzina 07:44 UTC
Prognoza ważna od 18 godzina 07 UTC do 19 godzina 06 UTC
Wiatr 5 kt z kierunków zmiennych
Widzialność: 1500 m
Rozproszone chmury na wysokości 3500 ft
zamglenie
Przejściowo
od 18 godzina 07 UTC do 18 godzina 10 UTC
Widzialność: 0600 m
Przerywane chmury na wysokości 500 ft
mgła
Stopniowe zmiany
od 18 godzina 10 UTC do 18 godzina 12 UTC
Widzialność: 6000 m

TAF: LIME 180744Z 1807/1906 VRB05KT 1500 BR SCT035 TEMPO 1807/1810 0600 FG BKN005 BECMG 1810/1812 6000

Obserwacja i prognoza pogody dla ponad 4000 lotnisk (raport METAR i TAF).

Dostępne stacje oznaczono żółtymi i czerwonymi punktami na mapie.

Najedź kursorem aby zobaczyć nazwę stacji.

Kliknij aby zobaczyć obserwacje i prognozy pogody.

Aby zmienić mapę: kliknij na zielony przycisk z czarnym krzyżykiem, aby powiększyć; na zielony przycisk z myślnikiem, aby pomniejszyć; na zielone strzałki, aby przejść do map sąsiednich.


METAR-TAF: